Time;durP1;ratioP1;P1;durP2;ratioP2;P2;SDS_P1;SDS_P2;PMS_P1;PMS_P2;Temp;Humidity;BMP_temperature;BMP_pressure;BME280_temperature;BME280_humidity;BME280_pressure;Samples;Min_cycle;Max_cycle;Signal;HPM_P1;HPM_P2
2021/08/26 00:00:56;;;;;;;5.53;3.50;;;27.20;38.40;;;;;;4952765;29;20031;-48
2021/08/26 00:06:06;;;;;;;;;;;27.20;38.20;;;;;;4954192;29;20082;-46
2021/08/26 00:08:32;;;;;;;5.85;3.70;;;27.20;38.30;;;;;;4953286;29;19906;-45
2021/08/26 00:10:58;;;;;;;7.22;3.72;;;27.20;38.30;;;;;;4954177;29;20067;-45
2021/08/26 00:13:23;;;;;;;5.68;3.90;;;27.20;38.20;;;;;;4953620;29;20086;-43
2021/08/26 00:15:50;;;;;;;4.95;3.60;;;27.20;38.10;;;;;;4953669;29;20031;-44
2021/08/26 00:18:16;;;;;;;4.97;3.95;;;27.10;38.10;;;;;;4953122;29;20472;-45
2021/08/26 00:20:44;;;;;;;5.05;3.65;;;27.20;38.10;;;;;;4953880;29;20031;-43
2021/08/26 00:23:10;;;;;;;5.78;3.60;;;27.20;38.40;;;;;;4953540;29;20035;-46
2021/08/26 00:25:54;;;;;;;5.40;3.70;;;27.20;38.30;;;;;;4953421;29;20031;-48
2021/08/26 00:28:20;;;;;;;4.82;3.70;;;27.10;38.30;;;;;;4953271;29;20027;-43
2021/08/26 00:30:46;;;;;;;5.88;3.83;;;27.20;38.30;;;;;;4954084;29;20151;-43
2021/08/26 00:33:11;;;;;;;5.00;3.50;;;27.10;38.30;;;;;;4952965;29;20027;-43
2021/08/26 00:35:37;;;;;;;5.03;3.65;;;27.20;38.40;;;;;;4936359;29;20027;-42
2021/08/26 00:38:03;;;;;;;5.05;3.28;;;27.10;38.40;;;;;;4954103;29;20031;-46
2021/08/26 00:40:29;;;;;;;6.82;3.80;;;27.20;38.60;;;;;;4952787;29;20031;-48
2021/08/26 00:42:57;;;;;;;6.38;3.67;;;27.20;38.40;;;;;;4953388;29;20051;-44
2021/08/26 00:45:23;;;;;;;5.28;3.70;;;27.20;38.40;;;;;;4951825;29;20112;-43
2021/08/26 00:47:49;;;;;;;5.78;3.50;;;27.20;38.50;;;;;;4953300;29;20060;-43
2021/08/26 00:50:15;;;;;;;5.10;3.67;;;27.10;38.30;;;;;;4953181;29;20035;-40
2021/08/26 00:52:41;;;;;;;5.07;3.67;;;27.10;38.30;;;;;;4953627;29;20354;-44
2021/08/26 00:55:08;;;;;;;4.75;3.65;;;27.10;38.30;;;;;;4953664;29;20051;-41
2021/08/26 00:57:35;;;;;;;6.05;3.72;;;27.20;38.40;;;;;;4953143;29;20031;-45
2021/08/26 01:00:07;;;;;;;6.15;4.30;;;27.10;38.30;;;;;;4953670;29;20384;-40
2021/08/26 01:02:57;;;;;;;5.03;3.50;;;27.10;38.30;;;;;;4953322;29;20213;-39
2021/08/26 01:05:33;;;;;;;5.30;3.60;;;27.10;38.30;;;;;;4953254;29;20070;-39
2021/08/26 01:08:15;;;;;;;6.00;3.90;;;27.10;38.30;;;;;;4952559;29;20483;-37
2021/08/26 01:10:43;;;;;;;5.60;3.70;;;27.10;38.30;;;;;;4953914;29;20358;-38
2021/08/26 01:13:10;;;;;;;5.63;3.60;;;27.10;38.30;;;;;;4953580;29;20055;-42
2021/08/26 01:15:35;;;;;;;5.22;3.55;;;27.10;38.30;;;;;;4953209;29;20090;-41
2021/08/26 01:18:01;;;;;;;5.72;3.35;;;27.10;38.40;;;;;;4953442;29;20019;-39
2021/08/26 01:20:27;;;;;;;5.32;3.55;;;27.10;38.40;;;;;;4951599;29;20122;-41
2021/08/26 01:22:53;;;;;;;5.55;3.63;;;27.10;38.40;;;;;;4953372;29;20035;-43
2021/08/26 01:25:23;;;;;;;4.72;3.40;;;27.10;38.40;;;;;;4953402;29;20110;-39
2021/08/26 01:27:59;;;;;;;6.70;3.70;;;27.10;38.40;;;;;;4952436;29;20465;-43
2021/08/26 01:30:29;;;;;;;5.65;3.20;;;27.10;38.30;;;;;;4953441;29;20043;-43
2021/08/26 01:32:58;;;;;;;5.63;3.67;;;27.10;38.40;;;;;;4953515;29;20035;-40
2021/08/26 01:35:30;;;;;;;5.35;3.90;;;27.10;38.40;;;;;;4952995;28;20030;-39
2021/08/26 01:37:56;;;;;;;6.18;3.72;;;27.10;38.30;;;;;;4957026;29;20078;-43
2021/08/26 01:40:38;;;;;;;5.78;3.53;;;27.10;38.30;;;;;;4955299;29;20092;-41
2021/08/26 01:43:07;;;;;;;5.05;3.45;;;27.00;38.30;;;;;;4956586;29;20035;-40
2021/08/26 01:45:32;;;;;;;4.10;2.83;;;27.10;38.30;;;;;;4956027;29;20024;-43
2021/08/26 01:47:58;;;;;;;5.07;3.42;;;27.10;38.40;;;;;;4956551;29;20023;-41
2021/08/26 01:50:24;;;;;;;5.30;3.50;;;27.10;38.40;;;;;;4954965;29;20034;-43
2021/08/26 01:52:49;;;;;;;5.95;3.70;;;27.10;38.40;;;;;;4956154;29;20078;-45
2021/08/26 01:55:15;;;;;;;4.72;3.40;;;27.10;38.40;;;;;;4955115;29;20048;-41
2021/08/26 01:57:41;;;;;;;7.05;3.88;;;27.10;38.40;;;;;;4955048;29;20031;-40
2021/08/26 02:00:08;;;;;;;5.15;3.63;;;27.10;38.40;;;;;;4956421;29;20117;-41
2021/08/26 02:02:34;;;;;;;5.40;3.70;;;27.10;38.40;;;;;;4955780;29;20158;-41
2021/08/26 02:04:59;;;;;;;6.15;3.38;;;27.10;38.40;;;;;;4954823;29;20130;-41
2021/08/26 02:07:25;;;;;;;6.88;3.72;;;27.10;38.40;;;;;;4954758;29;20106;-40
2021/08/26 02:09:50;;;;;;;6.10;3.97;;;27.10;38.40;;;;;;4956041;29;20031;-42
2021/08/26 02:12:17;;;;;;;4.70;3.50;;;27.10;38.50;;;;;;4955915;29;20031;-39
2021/08/26 02:14:42;;;;;;;8.00;3.88;;;27.10;38.40;;;;;;4955675;29;20031;-44
2021/08/26 02:17:08;;;;;;;4.95;3.13;;;27.10;38.40;;;;;;4956244;29;20028;-38
2021/08/26 02:19:34;;;;;;;6.28;4.15;;;27.10;38.40;;;;;;4955506;29;20030;-39
2021/08/26 02:22:00;;;;;;;5.00;3.38;;;27.10;38.40;;;;;;4956571;29;20073;-42
2021/08/26 02:24:27;;;;;;;5.28;3.42;;;27.10;38.40;;;;;;4955779;29;20477;-40
2021/08/26 02:26:52;;;;;;;5.05;3.47;;;27.10;38.40;;;;;;4956242;29;20031;-42
2021/08/26 02:29:18;;;;;;;6.80;3.58;;;27.10;38.40;;;;;;4955971;29;20086;-39
2021/08/26 02:31:44;;;;;;;5.78;3.33;;;27.10;38.50;;;;;;4955864;29;20020;-44
2021/08/26 02:34:10;;;;;;;6.63;3.53;;;27.10;38.50;;;;;;4956060;29;20528;-44
2021/08/26 02:36:35;;;;;;;4.95;3.35;;;27.10;38.50;;;;;;4938276;29;20066;-41
2021/08/26 02:39:01;;;;;;;5.38;3.72;;;27.10;38.40;;;;;;4955641;29;20062;-41
2021/08/26 02:41:27;;;;;;;5.63;3.85;;;27.00;38.40;;;;;;4955540;29;20377;-44
2021/08/26 02:43:53;;;;;;;6.85;3.70;;;27.10;38.50;;;;;;4954268;29;20138;-45
2021/08/26 02:46:19;;;;;;;5.10;3.63;;;27.10;38.50;;;;;;4954517;28;20031;-40
2021/08/26 02:48:44;;;;;;;4.75;3.40;;;27.10;38.50;;;;;;4954026;29;20377;-39
2021/08/26 02:51:10;;;;;;;5.45;3.83;;;27.00;38.40;;;;;;4954515;29;20050;-41
2021/08/26 02:53:36;;;;;;;6.55;4.03;;;27.00;38.40;;;;;;4955033;29;20035;-39
2021/08/26 02:56:02;;;;;;;6.25;3.75;;;27.00;38.40;;;;;;4955709;29;20059;-39
2021/08/26 02:58:28;;;;;;;6.10;3.45;;;27.00;38.50;;;;;;4955150;29;20420;-42
2021/08/26 03:00:53;;;;;;;4.95;3.50;;;27.00;38.40;;;;;;4955813;29;20039;-41
2021/08/26 03:03:20;;;;;;;6.88;3.90;;;27.00;38.50;;;;;;4954101;29;20121;-43
2021/08/26 03:05:46;;;;;;;5.53;3.90;;;27.00;38.50;;;;;;4949117;29;20384;-44
2021/08/26 03:08:14;;;;;;;5.65;4.00;;;27.00;38.50;;;;;;4954673;29;20036;-39
2021/08/26 03:10:39;;;;;;;8.35;3.70;;;27.00;38.50;;;;;;4954559;29;20031;-42
2021/08/26 03:13:05;;;;;;;6.45;3.60;;;27.10;38.60;;;;;;4954839;29;20058;-41
2021/08/26 03:15:31;;;;;;;8.07;4.30;;;27.10;38.60;;;;;;4953960;29;20114;-44
2021/08/26 03:17:56;;;;;;;4.70;3.45;;;27.10;38.60;;;;;;4954720;29;20098;-43
2021/08/26 03:20:22;;;;;;;6.13;3.55;;;27.10;38.60;;;;;;4955069;29;20015;-43
2021/08/26 03:22:49;;;;;;;5.57;3.70;;;27.10;38.40;;;;;;4953819;29;20019;-43
2021/08/26 03:25:15;;;;;;;4.88;3.55;;;27.10;38.40;;;;;;4954271;29;20106;-40
2021/08/26 03:27:41;;;;;;;4.97;3.20;;;27.10;38.40;;;;;;4954267;29;20059;-40
2021/08/26 03:30:08;;;;;;;5.85;3.53;;;27.10;38.40;;;;;;4954750;29;20047;-44
2021/08/26 03:32:34;;;;;;;5.47;3.67;;;27.10;38.40;;;;;;4954251;29;20031;-39
2021/08/26 03:35:00;;;;;;;5.95;3.90;;;27.10;38.40;;;;;;4954275;29;20114;-38
2021/08/26 03:37:26;;;;;;;6.15;4.10;;;27.10;38.40;;;;;;4953532;29;20059;-43
2021/08/26 03:39:51;;;;;;;5.80;4.05;;;27.10;38.40;;;;;;4954262;29;20070;-38
2021/08/26 03:42:17;;;;;;;5.05;3.88;;;27.10;39.10;;;;;;4954114;29;20027;-39
2021/08/26 03:44:43;;;;;;;5.47;4.00;;;27.10;38.50;;;;;;4953791;29;20063;-41
2021/08/26 03:47:10;;;;;;;5.82;4.47;;;27.10;38.50;;;;;;4954284;29;20066;-40
2021/08/26 03:49:36;;;;;;;6.75;4.57;;;27.10;38.40;;;;;;4953401;29;20035;-39
2021/08/26 03:52:02;;;;;;;7.00;5.50;;;27.10;38.50;;;;;;4954322;29;20046;-42
2021/08/26 03:54:28;;;;;;;9.52;5.43;;;27.10;38.50;;;;;;4953487;29;20035;-44
2021/08/26 03:56:54;;;;;;;8.23;5.55;;;27.10;38.50;;;;;;4937331;29;20046;-44
2021/08/26 03:59:20;;;;;;;7.72;5.60;;;27.10;38.50;;;;;;4953954;28;20030;-41
2021/08/26 04:01:46;;;;;;;7.60;5.32;;;27.10;38.50;;;;;;4952837;29;20023;-44
2021/08/26 04:04:12;;;;;;;8.05;5.28;;;27.10;38.50;;;;;;4954524;29;20043;-42
2021/08/26 04:06:37;;;;;;;7.18;5.20;;;27.10;38.40;;;;;;4952327;29;20494;-44
2021/08/26 04:09:03;;;;;;;7.35;4.93;;;27.10;38.40;;;;;;4953951;29;20436;-44
2021/08/26 04:11:29;;;;;;;8.18;5.22;;;27.10;38.40;;;;;;4952440;29;20467;-43
2021/08/26 04:13:54;;;;;;;8.25;5.68;;;27.10;38.40;;;;;;4954190;29;20035;-41
2021/08/26 04:16:20;;;;;;;6.90;5.10;;;27.10;38.50;;;;;;4953860;29;20118;-46
2021/08/26 04:18:46;;;;;;;7.95;5.53;;;27.10;38.50;;;;;;4953414;29;20106;-41
2021/08/26 04:21:11;;;;;;;7.00;5.22;;;27.10;38.60;;;;;;4954599;29;20039;-41
2021/08/26 04:23:37;;;;;;;8.48;5.22;;;27.10;38.60;;;;;;4953082;29;20040;-46
2021/08/26 04:26:03;;;;;;;8.68;5.50;;;27.10;38.70;;;;;;4952596;29;20110;-44
2021/08/26 04:28:28;;;;;;;7.70;5.55;;;27.10;38.70;;;;;;4952003;29;20059;-41
2021/08/26 04:30:54;;;;;;;7.32;5.57;;;27.10;38.70;;;;;;4953572;29;20031;-41
2021/08/26 04:33:20;;;;;;;7.75;5.38;;;27.10;38.70;;;;;;4953772;29;20038;-43
2021/08/26 04:35:45;;;;;;;7.97;5.43;;;27.10;38.70;;;;;;4952897;29;20023;-38
2021/08/26 04:38:11;;;;;;;7.97;5.70;;;27.10;38.60;;;;;;4952583;29;20532;-44
2021/08/26 04:40:37;;;;;;;16.48;5.10;;;27.10;38.60;;;;;;4953256;29;20512;-42
2021/08/26 04:43:22;;;;;;;6.80;4.68;;;27.10;38.60;;;;;;4953438;29;20499;-39
2021/08/26 04:45:48;;;;;;;7.70;5.07;;;27.10;38.70;;;;;;4953334;29;20194;-38
2021/08/26 04:48:13;;;;;;;6.97;4.82;;;27.10;38.70;;;;;;4953362;29;20031;-41
2021/08/26 04:50:39;;;;;;;7.95;4.72;;;27.10;38.70;;;;;;4952902;29;20027;-42
2021/08/26 04:53:04;;;;;;;7.28;4.90;;;27.10;38.70;;;;;;4953354;29;20027;-45
2021/08/26 04:55:30;;;;;;;7.70;4.93;;;27.10;38.80;;;;;;4951506;29;20512;-44
2021/08/26 04:57:56;;;;;;;6.95;4.82;;;27.10;38.70;;;;;;4953571;29;20038;-42
2021/08/26 05:00:21;;;;;;;6.60;5.00;;;27.10;38.80;;;;;;4952241;29;20028;-44
2021/08/26 05:02:47;;;;;;;6.65;4.72;;;27.10;38.80;;;;;;4952774;29;20060;-42
2021/08/26 05:05:13;;;;;;;7.57;4.78;;;27.10;38.90;;;;;;4953083;29;20114;-41
2021/08/26 05:07:38;;;;;;;6.53;4.80;;;27.10;38.90;;;;;;4952761;29;20035;-42
2021/08/26 05:10:05;;;;;;;6.97;5.00;;;27.10;38.90;;;;;;4953226;28;20028;-39
2021/08/26 05:12:31;;;;;;;7.25;5.18;;;27.10;38.90;;;;;;4956140;29;20027;-39
2021/08/26 05:14:57;;;;;;;8.50;4.57;;;27.10;39.00;;;;;;4956977;29;20027;-42
2021/08/26 05:17:22;;;;;;;9.50;4.85;;;27.10;38.90;;;;;;4957015;29;20115;-44
2021/08/26 05:19:48;;;;;;;5.88;4.25;;;27.10;38.80;;;;;;4956386;29;20030;-39
2021/08/26 05:22:14;;;;;;;6.70;4.47;;;27.10;38.70;;;;;;4956868;29;20513;-41
2021/08/26 05:24:39;;;;;;;7.80;4.97;;;27.10;38.60;;;;;;4956066;29;20508;-39
2021/08/26 05:27:05;;;;;;;6.03;4.35;;;27.10;38.60;;;;;;4956784;29;20127;-41
2021/08/26 05:29:31;;;;;;;8.90;4.50;;;27.00;38.50;;;;;;4955042;29;20070;-49
2021/08/26 05:31:57;;;;;;;6.90;4.40;;;27.00;38.50;;;;;;4956485;29;20031;-42
2021/08/26 05:34:23;;;;;;;7.88;4.88;;;27.00;38.60;;;;;;4956563;29;20552;-42
2021/08/26 05:36:48;;;;;;;8.13;4.22;;;27.00;38.50;;;;;;4958773;29;20034;-39
2021/08/26 05:39:14;;;;;;;8.70;4.70;;;27.00;38.60;;;;;;4955171;29;20027;-40
2021/08/26 05:41:44;;;;;;;7.13;4.28;;;27.00;38.70;;;;;;4956130;29;20380;-39
2021/08/26 05:44:13;;;;;;;11.30;4.80;;;27.00;39.10;;;;;;4956925;29;20042;-42
2021/08/26 05:46:38;;;;;;;9.55;4.25;;;27.00;38.90;;;;;;4955869;29;20031;-43
2021/08/26 05:49:04;;;;;;;9.80;4.78;;;27.10;38.80;;;;;;4956288;29;20042;-46
2021/08/26 05:51:29;;;;;;;15.30;4.60;;;27.10;38.30;;;;;;4954825;29;20032;-40
2021/08/26 05:53:55;;;;;;;8.82;4.55;;;27.00;38.00;;;;;;4956183;29;20028;-42
2021/08/26 05:56:39;;;;;;;10.05;5.18;;;27.00;37.80;;;;;;4956110;29;20050;-43
2021/08/26 05:59:05;;;;;;;10.32;4.60;;;27.00;37.60;;;;;;4956368;29;20443;-40
2021/08/26 06:01:31;;;;;;;10.13;4.70;;;26.90;37.60;;;;;;4955771;29;20055;-44
2021/08/26 06:03:57;;;;;;;9.68;4.53;;;26.90;37.70;;;;;;4954742;29;20107;-43
2021/08/26 06:06:23;;;;;;;11.43;4.95;;;26.80;37.80;;;;;;4955934;29;20042;-42
2021/08/26 06:08:49;;;;;;;12.07;5.50;;;26.80;38.00;;;;;;4954093;29;20023;-46
2021/08/26 06:11:15;;;;;;;17.30;5.68;;;26.80;38.10;;;;;;4954803;29;20046;-42
2021/08/26 06:13:41;;;;;;;10.02;5.13;;;26.70;38.10;;;;;;4953984;29;20392;-42
2021/08/26 06:16:06;;;;;;;9.15;4.85;;;26.70;38.10;;;;;;4955874;29;20023;-40
2021/08/26 06:18:32;;;;;;;7.43;4.70;;;26.60;38.00;;;;;;4955035;29;20030;-40
2021/08/26 06:20:58;;;;;;;9.68;5.30;;;26.60;38.00;;;;;;4954475;28;20050;-41
2021/08/26 06:23:24;;;;;;;7.70;5.13;;;26.60;38.00;;;;;;4954051;29;20392;-42
2021/08/26 06:25:50;;;;;;;8.38;4.45;;;26.60;38.20;;;;;;4954797;29;20469;-46
2021/08/26 06:28:16;;;;;;;13.73;5.45;;;26.60;38.20;;;;;;4954365;29;20030;-42
2021/08/26 06:30:41;;;;;;;41.80;7.65;;;26.50;38.20;;;;;;4953718;29;20122;-42
2021/08/26 06:33:07;;;;;;;16.63;4.55;;;26.50;38.40;;;;;;4937958;29;20027;-45
2021/08/26 06:35:33;;;;;;;19.75;5.63;;;26.50;38.60;;;;;;4954979;29;20034;-44
2021/08/26 06:37:59;;;;;;;17.65;6.07;;;26.40;38.60;;;;;;4954973;29;20082;-45
2021/08/26 06:40:26;;;;;;;13.05;6.22;;;26.40;38.80;;;;;;4954076;29;20393;-44
2021/08/26 06:42:52;;;;;;;14.65;5.82;;;26.40;38.80;;;;;;4955101;29;20469;-43
2021/08/26 06:45:17;;;;;;;12.07;5.30;;;26.40;38.70;;;;;;4954946;29;20043;-41
2021/08/26 06:47:43;;;;;;;10.70;5.35;;;26.40;38.70;;;;;;4954291;29;20110;-42
2021/08/26 06:50:09;;;;;;;12.85;5.35;;;26.40;38.70;;;;;;4953850;29;20397;-43
2021/08/26 06:52:35;;;;;;;9.82;5.18;;;26.40;38.80;;;;;;4953328;29;20354;-46
2021/08/26 06:55:00;;;;;;;9.15;5.20;;;26.40;38.80;;;;;;4954575;29;20438;-43
2021/08/26 06:57:29;;;;;;;9.80;4.90;;;26.40;38.90;;;;;;4954595;29;20081;-48
2021/08/26 06:59:55;;;;;;;10.15;5.93;;;26.40;39.00;;;;;;4954948;29;20038;-43
2021/08/26 07:02:21;;;;;;;7.88;4.65;;;26.40;39.00;;;;;;4954899;29;20027;-42
2021/08/26 07:04:47;;;;;;;11.73;5.03;;;26.40;39.00;;;;;;4953184;29;20044;-41
2021/08/26 07:07:12;;;;;;;12.63;5.10;;;26.40;39.10;;;;;;4954723;29;20090;-44
2021/08/26 07:09:38;;;;;;;10.27;5.53;;;26.40;39.10;;;;;;4954139;29;20027;-46
2021/08/26 07:12:04;;;;;;;10.35;4.97;;;26.40;39.10;;;;;;4954750;29;20087;-39
2021/08/26 07:14:29;;;;;;;8.15;5.07;;;26.30;39.10;;;;;;4953108;29;20528;-43
2021/08/26 07:16:55;;;;;;;9.77;4.90;;;26.40;39.30;;;;;;4953464;29;20045;-42
2021/08/26 07:19:21;;;;;;;10.05;4.97;;;26.30;39.20;;;;;;4953200;29;20027;-43
2021/08/26 07:21:48;;;;;;;11.95;5.40;;;26.30;39.30;;;;;;4953747;29;20034;-40
2021/08/26 07:24:14;;;;;;;8.43;5.15;;;26.30;39.40;;;;;;4954352;29;20504;-42
2021/08/26 07:26:40;;;;;;;9.00;5.65;;;26.30;39.40;;;;;;4952531;29;20034;-39
2021/08/26 07:29:06;;;;;;;7.72;4.97;;;26.30;39.60;;;;;;4954258;29;20027;-42
2021/08/26 07:31:32;;;;;;;9.93;4.63;;;26.30;39.60;;;;;;4953605;29;20230;-38
2021/08/26 07:33:57;;;;;;;10.38;5.05;;;26.30;39.70;;;;;;4953965;28;20028;-41
2021/08/26 07:36:23;;;;;;;9.95;5.50;;;26.30;39.80;;;;;;4953986;29;20038;-42
2021/08/26 07:38:49;;;;;;;10.63;5.10;;;26.30;39.80;;;;;;4952117;29;20023;-43
2021/08/26 07:41:14;;;;;;;8.57;4.93;;;26.30;39.90;;;;;;4952380;29;20345;-42
2021/08/26 07:43:40;;;;;;;10.18;5.78;;;26.30;39.90;;;;;;4953309;29;20414;-43
2021/08/26 07:46:06;;;;;;;8.52;4.85;;;26.30;40.00;;;;;;4953699;29;20034;-44
2021/08/26 07:48:32;;;;;;;12.60;4.93;;;26.30;40.00;;;;;;4951999;29;20388;-41
2021/08/26 07:51:03;;;;;;;12.15;4.70;;;26.30;40.10;;;;;;4936749;29;20050;-41
2021/08/26 07:53:30;;;;;;;8.50;5.07;;;26.30;40.10;;;;;;4952131;29;20035;-42
2021/08/26 07:55:56;;;;;;;28.05;8.52;;;26.30;40.20;;;;;;4953782;29;20049;-42
2021/08/26 07:58:22;;;;;;;12.82;7.50;;;26.30;40.20;;;;;;4953662;29;20026;-39
2021/08/26 08:00:48;;;;;;;10.80;6.47;;;26.30;40.20;;;;;;4952996;29;20071;-42
2021/08/26 08:03:13;;;;;;;10.10;5.72;;;26.30;40.20;;;;;;4954041;29;20066;-40
2021/08/26 08:05:39;;;;;;;8.43;4.88;;;26.30;40.20;;;;;;4952075;29;20066;-42
2021/08/26 08:08:05;;;;;;;10.85;5.60;;;26.30;40.30;;;;;;4936206;29;20465;-42
2021/08/26 08:10:31;;;;;;;7.90;5.20;;;26.30;40.20;;;;;;4953171;29;20027;-41
2021/08/26 08:12:56;;;;;;;9.63;5.07;;;26.30;40.30;;;;;;4952619;29;20520;-44
2021/08/26 08:15:22;;;;;;;8.93;5.50;;;26.30;40.30;;;;;;4953822;29;20019;-41
2021/08/26 08:17:48;;;;;;;8.10;5.40;;;26.30;40.30;;;;;;4951654;29;20469;-41
2021/08/26 08:20:14;;;;;;;10.82;5.72;;;26.30;40.30;;;;;;4936573;29;20031;-41
2021/08/26 08:22:39;;;;;;;8.85;5.72;;;26.30;40.40;;;;;;4953117;29;20078;-40
2021/08/26 08:25:06;;;;;;;7.70;5.38;;;26.30;40.40;;;;;;4952414;29;20094;-44
2021/08/26 08:27:32;;;;;;;9.63;5.65;;;26.30;40.30;;;;;;4953318;29;20038;-40
2021/08/26 08:29:58;;;;;;;11.23;5.03;;;26.30;40.30;;;;;;4952369;29;20484;-41
2021/08/26 08:32:23;;;;;;;10.07;5.35;;;26.30;40.40;;;;;;4953554;29;20051;-40
2021/08/26 08:34:49;;;;;;;9.20;5.65;;;26.30;40.40;;;;;;4951600;29;20370;-44
2021/08/26 08:37:15;;;;;;;8.98;5.15;;;26.30;40.40;;;;;;4953410;29;20466;-41
2021/08/26 08:39:40;;;;;;;8.75;5.03;;;26.30;40.40;;;;;;4951636;29;20031;-45
2021/08/26 08:42:06;;;;;;;7.72;5.40;;;26.30;40.40;;;;;;4951672;29;20028;-42
2021/08/26 08:44:32;;;;;;;9.82;5.90;;;26.40;40.50;;;;;;4952784;28;20043;-42
2021/08/26 08:46:58;;;;;;;9.68;6.30;;;26.30;40.40;;;;;;4956002;29;20396;-41
2021/08/26 08:49:25;;;;;;;10.93;6.22;;;26.40;40.50;;;;;;4955495;29;20035;-40
2021/08/26 08:51:52;;;;;;;8.25;5.30;;;26.30;40.50;;;;;;4956933;29;20117;-42
2021/08/26 08:54:19;;;;;;;8.40;5.30;;;26.30;40.70;;;;;;4956533;29;20105;-42
2021/08/26 08:56:45;;;;;;;9.95;4.95;;;26.30;40.90;;;;;;4955304;29;20122;-43
2021/08/26 08:59:11;;;;;;;10.98;5.57;;;26.30;41.20;;;;;;4955719;29;20024;-41
2021/08/26 09:01:37;;;;;;;8.32;5.47;;;26.30;41.50;;;;;;4956193;29;20063;-42
2021/08/26 09:04:06;;;;;;;10.07;5.57;;;26.40;42.40;;;;;;4956861;29;20496;-42
2021/08/26 09:06:42;;;;;;;10.07;6.32;;;26.30;42.00;;;;;;4955033;29;20089;-44
2021/08/26 09:09:10;;;;;;;11.63;6.18;;;26.30;42.50;;;;;;4956487;29;20033;-40
2021/08/26 09:11:37;;;;;;;11.57;5.90;;;26.30;42.60;;;;;;4954994;29;20059;-39
2021/08/26 09:14:13;;;;;;;11.90;6.57;;;26.40;42.80;;;;;;4956699;29;20035;-44
2021/08/26 09:16:58;;;;;;;12.25;7.05;;;26.30;43.20;;;;;;4956286;29;20028;-40
2021/08/26 09:19:30;;;;;;;12.77;7.53;;;26.30;43.10;;;;;;4955272;29;20090;-42
2021/08/26 09:22:01;;;;;;;7.63;5.70;;;26.30;43.20;;;;;;4956358;29;20086;-38
2021/08/26 09:24:46;;;;;;;15.00;5.93;;;26.40;43.20;;;;;;4956123;29;20485;-42
2021/08/26 09:27:32;;;;;;;8.82;5.28;;;26.30;43.20;;;;;;4954383;29;20028;-41
2021/08/26 09:30:10;;;;;;;10.35;6.13;;;26.30;43.20;;;;;;4955853;29;20057;-40
2021/08/26 09:32:49;;;;;;;10.52;6.30;;;26.40;43.30;;;;;;4955121;29;20031;-45
2021/08/26 09:35:22;;;;;;;9.32;6.45;;;26.40;43.50;;;;;;4954618;29;20416;-46
2021/08/26 09:37:52;;;;;;;14.10;6.27;;;26.40;43.50;;;;;;4937936;29;20057;-43
2021/08/26 09:40:23;;;;;;;9.25;6.07;;;26.30;43.60;;;;;;4954425;29;20551;-42
2021/08/26 09:43:01;;;;;;;10.50;6.65;;;26.30;43.80;;;;;;4954643;29;20204;-42
2021/08/26 09:45:31;;;;;;;10.52;7.13;;;26.30;43.80;;;;;;4954349;29;20487;-42
2021/08/26 09:48:12;;;;;;;13.07;7.22;;;26.40;43.90;;;;;;4938762;29;20101;-41
2021/08/26 09:50:50;;;;;;;11.10;6.43;;;26.30;43.80;;;;;;4938397;29;20019;-41
2021/08/26 09:53:21;;;;;;;14.35;7.80;;;26.40;43.80;;;;;;4955783;29;20472;-46
2021/08/26 09:55:57;;;;;;;9.85;6.70;;;26.40;43.70;;;;;;4953626;28;20043;-46
2021/08/26 09:58:29;;;;;;;10.02;6.47;;;26.40;43.80;;;;;;4953845;29;20457;-44
2021/08/26 10:01:16;;;;;;;12.60;6.90;;;26.40;43.40;;;;;;4954068;29;20034;-41
2021/08/26 10:03:42;;;;;;;11.52;6.40;;;26.30;43.30;;;;;;4955486;29;20030;-40
2021/08/26 10:06:13;;;;;;;10.35;6.80;;;26.40;43.20;;;;;;4953991;29;20110;-43
2021/08/26 10:08:41;;;;;;;10.07;6.00;;;26.30;43.20;;;;;;4937261;29;20030;-42
2021/08/26 10:11:08;;;;;;;10.55;6.07;;;26.30;43.40;;;;;;4953839;29;20030;-39
2021/08/26 10:13:35;;;;;;;10.93;5.93;;;26.30;43.40;;;;;;4937279;29;20039;-40
2021/08/26 10:16:01;;;;;;;12.02;6.53;;;26.40;43.50;;;;;;4954267;29;20024;-40
2021/08/26 10:18:29;;;;;;;9.88;6.78;;;26.40;43.70;;;;;;4953913;29;20078;-40
2021/08/26 10:20:56;;;;;;;11.43;6.68;;;26.30;43.80;;;;;;4953428;29;20030;-40
2021/08/26 10:23:24;;;;;;;9.70;5.93;;;26.40;43.80;;;;;;4954622;29;20091;-43
2021/08/26 10:25:52;;;;;;;8.52;5.93;;;26.40;43.80;;;;;;4954150;29;20130;-42
2021/08/26 10:28:19;;;;;;;12.00;6.45;;;26.40;44.40;;;;;;4953559;29;20026;-42
2021/08/26 10:30:45;;;;;;;16.77;6.60;;;26.40;43.90;;;;;;4954374;29;20043;-42
2021/08/26 10:33:12;;;;;;;11.40;6.32;;;26.40;43.80;;;;;;4953313;29;20441;-42
2021/08/26 10:36:00;;;;;;;9.88;6.28;;;26.40;43.70;;;;;;4953795;29;20046;-43
2021/08/26 10:38:28;;;;;;;11.02;5.85;;;26.40;43.90;;;;;;4953331;29;20118;-41
2021/08/26 10:40:55;;;;;;;10.93;6.30;;;26.40;43.90;;;;;;4952830;29;20027;-41
2021/08/26 10:43:38;;;;;;;13.13;6.53;;;26.40;43.90;;;;;;4953199;29;20233;-43
2021/08/26 10:46:07;;;;;;;9.77;6.78;;;26.40;43.90;;;;;;4954235;29;20046;-42
2021/08/26 10:48:33;;;;;;;8.77;6.18;;;26.40;43.60;;;;;;4947826;29;20035;-38
2021/08/26 10:51:15;;;;;;;9.30;6.30;;;26.40;43.50;;;;;;4951790;29;20043;-40
2021/08/26 10:53:46;;;;;;;12.77;6.40;;;26.40;43.50;;;;;;4952633;29;20038;-45
2021/08/26 10:56:19;;;;;;;9.88;6.60;;;26.40;43.50;;;;;;4954863;29;20134;-41
2021/08/26 10:58:46;;;;;;;;;;;26.40;43.60;;;;;;4953701;29;20124;-42
2021/08/26 11:01:33;;;;;;;9.52;6.65;;;26.50;43.50;;;;;;4954577;29;19906;-42
2021/08/26 11:04:04;;;;;;;13.57;6.55;;;26.40;43.60;;;;;;4935753;29;20047;-47
2021/08/26 11:06:30;;;;;;;12.00;6.65;;;26.40;43.60;;;;;;4954473;29;20027;-43
2021/08/26 11:09:12;;;;;;;14.88;6.45;;;26.40;43.60;;;;;;4951892;28;20454;-44
2021/08/26 11:11:41;;;;;;;13.35;6.90;;;26.40;43.60;;;;;;4952360;29;20469;-47
2021/08/26 11:14:13;;;;;;;13.93;7.05;;;26.40;43.60;;;;;;4952021;29;20410;-41
2021/08/26 11:16:44;;;;;;;11.32;7.00;;;26.40;43.60;;;;;;4952591;29;20054;-42
2021/08/26 11:19:16;;;;;;;14.93;6.32;;;26.40;43.50;;;;;;4951797;29;20033;-42
2021/08/26 11:21:45;;;;;;;9.73;6.40;;;26.40;43.50;;;;;;4952694;29;20051;-43
2021/08/26 11:24:38;;;;;;;11.65;6.45;;;26.40;43.30;;;;;;4952962;29;20043;-41
2021/08/26 11:27:19;;;;;;;12.82;6.82;;;26.40;43.50;;;;;;4912439;29;20043;-44
2021/08/26 11:29:46;;;;;;;9.98;6.65;;;26.40;43.30;;;;;;4911402;29;20489;-46
2021/08/26 11:32:13;;;;;;;10.38;6.35;;;26.40;43.30;;;;;;4911367;29;20032;-41
2021/08/26 11:34:54;;;;;;;19.42;9.38;;;26.40;43.40;;;;;;4910719;29;20445;-43
2021/08/26 11:37:36;;;;;;;22.33;15.82;;;26.40;43.50;;;;;;4910585;29;20092;-41
2021/08/26 11:40:01;;;;;;;16.33;10.18;;;26.40;43.30;;;;;;4910326;29;20244;-43
2021/08/26 11:42:35;;;;;;;12.00;8.35;;;26.50;43.20;;;;;;4911597;29;20391;-41
2021/08/26 11:45:20;;;;;;;12.50;8.13;;;26.50;43.20;;;;;;4911329;29;20096;-44
2021/08/26 11:47:48;;;;;;;14.32;9.52;;;26.60;43.10;;;;;;4911354;29;20246;-44
2021/08/26 11:50:19;;;;;;;19.38;13.88;;;26.50;42.90;;;;;;4911571;29;20044;-41
2021/08/26 11:52:50;;;;;;;19.52;14.00;;;26.60;43.10;;;;;;4894720;29;20469;-44
2021/08/26 11:55:17;;;;;;;14.88;9.68;;;26.60;43.00;;;;;;4910987;29;20131;-43
2021/08/26 11:57:43;;;;;;;14.70;9.25;;;26.60;42.90;;;;;;4910559;29;20123;-40
2021/08/26 12:00:16;;;;;;;16.63;7.93;;;26.60;42.90;;;;;;4910556;29;20111;-39
2021/08/26 12:02:50;;;;;;;10.73;7.30;;;26.60;42.90;;;;;;4910592;29;20035;-42
2021/08/26 12:05:16;;;;;;;12.43;7.03;;;26.70;43.00;;;;;;4950404;29;20078;-47
2021/08/26 12:07:45;;;;;;;12.82;7.57;;;26.70;42.90;;;;;;4951798;29;20036;-41
2021/08/26 12:10:16;;;;;;;11.65;7.57;;;26.70;42.90;;;;;;4950420;29;20438;-45
2021/08/26 12:13:05;;;;;;;10.23;7.18;;;26.70;42.80;;;;;;4950652;29;20031;-41
2021/08/26 12:15:40;;;;;;;10.10;7.47;;;26.70;43.00;;;;;;4935099;29;20031;-50
2021/08/26 12:18:11;;;;;;;17.55;8.20;;;26.70;43.10;;;;;;4952151;29;20027;-58
2021/08/26 12:20:42;;;;;;;13.25;7.60;;;26.70;43.00;;;;;;4951593;29;20042;-62
2021/08/26 12:23:08;;;;;;;13.80;8.13;;;26.70;43.30;;;;;;4952123;29;20436;-62
2021/08/26 12:25:37;;;;;;;12.60;8.02;;;26.80;43.30;;;;;;4951574;29;20047;-65
2021/08/26 12:28:10;;;;;;;13.63;7.88;;;26.80;43.40;;;;;;4950813;29;20023;-62
2021/08/26 12:30:40;;;;;;;10.63;6.85;;;26.80;43.40;;;;;;4951747;29;20098;-63
2021/08/26 12:33:17;;;;;;;11.18;7.50;;;26.80;43.40;;;;;;4951863;29;20054;-62
2021/08/26 12:35:51;;;;;;;10.00;6.78;;;26.80;43.30;;;;;;4950221;29;20039;-62
2021/08/26 12:38:38;;;;;;;11.98;6.65;;;26.80;43.30;;;;;;4950378;29;20066;-62
2021/08/26 12:41:13;;;;;;;12.30;6.95;;;26.80;43.30;;;;;;4951413;29;20061;-59
2021/08/26 12:43:43;;;;;;;13.65;6.68;;;26.80;43.20;;;;;;4950883;29;20064;-59
2021/08/26 12:46:11;;;;;;;8.65;6.43;;;26.80;43.20;;;;;;4950036;29;20027;-61
2021/08/26 12:48:40;;;;;;;8.05;5.80;;;26.80;43.10;;;;;;4950274;29;20093;-54
2021/08/26 12:51:19;;;;;;;28.30;6.45;;;26.90;43.10;;;;;;4950625;29;20034;-57